createdAt,value
2022-09-25T00:02:28.924Z,15.37
2022-09-25T00:04:58.781Z,14.67
2022-09-25T00:07:28.302Z,14.43
2022-09-25T00:09:57.857Z,15.03
2022-09-25T00:12:28.019Z,16.40
2022-09-25T00:15:02.300Z,14.83
2022-09-25T00:17:33.100Z,15.80
2022-09-25T00:20:01.258Z,17.50
2022-09-25T00:22:35.300Z,16.13
2022-09-25T00:25:04.890Z,16.50
2022-09-25T00:27:34.014Z,16.60
2022-09-25T00:30:04.555Z,17.90
2022-09-25T00:32:33.309Z,17.00
2022-09-25T00:35:03.240Z,16.23
2022-09-25T00:37:33.257Z,18.20
2022-09-25T00:40:07.138Z,17.00
2022-09-25T00:42:36.525Z,18.03
2022-09-25T00:45:16.554Z,17.10
2022-09-25T00:48:03.727Z,19.30
2022-09-25T00:50:31.603Z,17.40
2022-09-25T00:53:12.001Z,16.93
2022-09-25T00:55:42.811Z,17.67
2022-09-25T00:58:14.569Z,18.80
2022-09-25T01:00:41.009Z,17.47
2022-09-25T01:03:15.955Z,17.80
2022-09-25T01:05:46.831Z,17.40
2022-09-25T01:08:16.529Z,16.70
2022-09-25T01:10:42.855Z,19.60
2022-09-25T01:13:13.231Z,19.90
2022-09-25T01:15:56.733Z,19.17
2022-09-25T01:18:31.773Z,22.37
2022-09-25T01:21:37.819Z,21.00
2022-09-25T01:24:32.746Z,20.57
2022-09-25T01:27:02.681Z,19.97
2022-09-25T01:29:55.354Z,19.17
2022-09-25T01:32:33.920Z,19.47
2022-09-25T01:35:12.260Z,20.97
2022-09-25T01:37:43.813Z,20.90
2022-09-25T01:40:17.850Z,21.40
2022-09-25T01:43:05.558Z,20.57
2022-09-25T01:45:40.505Z,21.40
2022-09-25T01:48:08.896Z,22.27
2022-09-25T01:50:46.300Z,21.43
2022-09-25T01:53:22.108Z,20.90
2022-09-25T01:55:52.301Z,20.40
2022-09-25T01:58:30.024Z,20.73
2022-09-25T02:01:12.417Z,21.40
2022-09-25T02:03:46.706Z,21.67
2022-09-25T02:06:19.268Z,19.03
2022-09-25T02:08:53.240Z,21.20
2022-09-25T02:11:29.586Z,21.00
2022-09-25T02:14:04.728Z,20.10
2022-09-25T02:16:37.422Z,19.20
2022-09-25T02:19:26.439Z,20.80
2022-09-25T02:22:04.359Z,19.97
2022-09-25T02:24:58.452Z,21.40
2022-09-25T02:27:26.861Z,21.13
2022-09-25T02:29:54.580Z,21.70
2022-09-25T02:32:39.151Z,23.20
2022-09-25T02:35:05.594Z,20.43
2022-09-25T02:37:32.074Z,21.70
2022-09-25T02:40:03.657Z,22.90
2022-09-25T02:42:38.951Z,23.90
2022-09-25T02:45:28.276Z,20.10
2022-09-25T02:48:20.200Z,21.17
2022-09-25T02:51:08.641Z,20.43
2022-09-25T02:53:46.592Z,20.40
2022-09-25T02:56:39.315Z,22.07
2022-09-25T02:59:23.935Z,21.30
2022-09-25T03:01:58.712Z,20.90
2022-09-25T03:04:29.056Z,22.47
2022-09-25T03:06:59.115Z,21.10
2022-09-25T03:09:33.034Z,22.00
2022-09-25T03:12:06.777Z,21.37
2022-09-25T03:14:36.727Z,23.03
2022-09-25T03:17:07.438Z,22.57
2022-09-25T03:19:35.934Z,22.10
2022-09-25T03:22:06.185Z,21.83
2022-09-25T03:24:36.341Z,22.77
2022-09-25T03:27:05.216Z,21.80
2022-09-25T03:29:35.258Z,21.50
2022-09-25T03:32:04.523Z,22.80
2022-09-25T03:34:33.919Z,20.93
2022-09-25T03:37:07.375Z,20.53
2022-09-25T03:39:37.041Z,22.43
2022-09-25T03:42:06.782Z,21.40
2022-09-25T03:44:36.624Z,22.03
2022-09-25T03:47:06.465Z,22.40
2022-09-25T03:49:36.121Z,22.93
2022-09-25T03:52:05.394Z,23.77
2022-09-25T03:54:35.244Z,21.90
2022-09-25T03:57:05.590Z,21.97
2022-09-25T03:59:35.428Z,21.40
2022-09-25T04:02:05.234Z,23.37
2022-09-25T04:04:37.381Z,21.63
2022-09-25T04:07:07.947Z,21.13
2022-09-25T04:09:36.096Z,21.63
2022-09-25T04:12:06.698Z,21.17
2022-09-25T04:14:36.211Z,22.70
2022-09-25T04:17:05.527Z,21.10
2022-09-25T04:19:34.968Z,23.33
2022-09-25T04:22:06.706Z,20.70
2022-09-25T04:24:48.958Z,19.90
2022-09-25T04:27:19.717Z,21.50
2022-09-25T04:29:46.102Z,22.27
2022-09-25T04:32:32.664Z,23.77
2022-09-25T04:34:59.151Z,23.20
2022-09-25T04:37:25.623Z,21.27
2022-09-25T04:39:56.694Z,19.20
2022-09-25T04:42:23.971Z,20.70
2022-09-25T04:44:54.423Z,20.97
2022-09-25T04:47:25.471Z,19.13
2022-09-25T04:49:55.433Z,18.93
2022-09-25T04:52:21.617Z,20.83
2022-09-25T04:54:47.778Z,20.00
2022-09-25T04:57:38.773Z,18.70
2022-09-25T05:00:06.580Z,19.67
2022-09-25T05:02:32.909Z,20.70
2022-09-25T05:05:07.283Z,18.77
2022-09-25T05:07:38.085Z,19.50
2022-09-25T05:10:08.087Z,19.80
2022-09-25T05:12:35.448Z,20.70
2022-09-25T05:15:05.969Z,20.07
2022-09-25T05:17:32.831Z,18.97
2022-09-25T05:19:59.021Z,19.07
2022-09-25T05:22:25.216Z,20.27
2022-09-25T05:24:59.054Z,18.67
2022-09-25T05:27:25.466Z,18.37
2022-09-25T05:29:51.745Z,20.60
2022-09-25T05:32:18.266Z,18.20
2022-09-25T05:34:47.969Z,17.40
2022-09-25T05:37:14.113Z,19.20
2022-09-25T05:39:41.768Z,18.70
2022-09-25T05:42:11.565Z,16.23
2022-09-25T05:44:41.580Z,17.27
2022-09-25T05:47:10.363Z,16.40
2022-09-25T05:49:39.822Z,17.67
2022-09-25T05:52:09.598Z,14.93
2022-09-25T05:54:39.057Z,16.27
2022-09-25T05:57:09.028Z,16.07
2022-09-25T05:59:38.699Z,17.43
2022-09-25T06:02:12.353Z,15.63
2022-09-25T06:04:41.446Z,15.93
2022-09-25T06:07:11.019Z,15.80
2022-09-25T06:09:40.708Z,15.73
2022-09-25T06:12:10.623Z,14.73
2022-09-25T06:14:52.107Z,14.40
2022-09-25T06:17:22.423Z,14.80
2022-09-25T06:19:51.449Z,13.40
2022-09-25T06:22:21.191Z,12.93
2022-09-25T06:24:50.731Z,12.90
2022-09-25T06:27:20.873Z,12.90
2022-09-25T06:29:50.063Z,10.97
2022-09-25T06:32:22.584Z,11.40
2022-09-25T06:34:49.590Z,11.30
2022-09-25T06:37:22.648Z,11.00
2022-09-25T06:39:52.002Z,10.50
2022-09-25T06:42:22.413Z,10.47
2022-09-25T06:44:52.061Z,10.07
2022-09-25T06:47:26.631Z,10.00
2022-09-25T06:49:52.996Z,10.30
2022-09-25T06:52:21.814Z,9.87
2022-09-25T06:54:53.585Z,8.63
2022-09-25T06:57:23.385Z,9.10
2022-09-25T06:59:52.488Z,10.10
2022-09-25T07:02:40.316Z,9.30
2022-09-25T07:05:07.069Z,9.93
2022-09-25T07:07:33.269Z,9.80
2022-09-25T07:10:00.523Z,8.90
2022-09-25T07:12:33.946Z,8.23
2022-09-25T07:14:59.975Z,8.60
2022-09-25T07:17:26.096Z,7.57
2022-09-25T07:19:52.268Z,12.13
2022-09-25T07:22:28.806Z,8.07
2022-09-25T07:24:55.537Z,8.93
2022-09-25T07:27:25.007Z,8.10
2022-09-25T07:29:54.543Z,8.70
2022-09-25T07:32:23.919Z,10.03
2022-09-25T07:34:53.287Z,9.20
2022-09-25T07:37:22.895Z,8.20
2022-09-25T07:39:52.368Z,9.20
2022-09-25T07:42:22.420Z,7.57
2022-09-25T07:44:52.137Z,7.60
2022-09-25T07:47:21.766Z,8.80
2022-09-25T07:49:54.571Z,7.93
2022-09-25T07:52:24.495Z,6.90
2022-09-25T07:54:53.611Z,5.77
2022-09-25T07:57:23.465Z,6.10
2022-09-25T07:59:52.991Z,7.23
2022-09-25T08:02:23.878Z,6.60
2022-09-25T08:04:53.868Z,6.57
2022-09-25T08:07:27.286Z,6.30
2022-09-25T08:09:55.795Z,5.60
2022-09-25T08:12:25.226Z,6.20
2022-09-25T08:14:54.746Z,6.70
2022-09-25T08:17:24.189Z,6.83
2022-09-25T08:19:53.604Z,6.60
2022-09-25T08:22:24.051Z,6.40
2022-09-25T08:24:53.415Z,6.00
2022-09-25T08:27:23.163Z,6.10
2022-09-25T08:29:52.774Z,6.00
2022-09-25T08:32:23.283Z,5.80
2022-09-25T08:34:55.696Z,5.50
2022-09-25T08:37:25.401Z,5.63
2022-09-25T08:39:55.319Z,5.30
2022-09-25T08:42:29.899Z,5.20
2022-09-25T08:45:21.496Z,5.90
2022-09-25T08:48:09.615Z,5.40
2022-09-25T08:50:40.435Z,5.67
2022-09-25T08:56:14.764Z,5.93
2022-09-25T08:58:50.926Z,5.40
2022-09-25T09:01:27.705Z,4.80
2022-09-25T09:04:14.662Z,5.20
2022-09-25T09:07:24.728Z,5.60
2022-09-25T09:09:49.311Z,5.13
2022-09-25T09:12:30.623Z,5.30
2022-09-25T09:15:25.341Z,4.70
2022-09-25T09:17:56.219Z,4.73
2022-09-25T09:20:50.879Z,4.83
2022-09-25T09:23:33.005Z,4.53
2022-09-25T09:26:05.188Z,5.00
2022-09-25T09:28:59.491Z,4.83
2022-09-25T09:31:43.973Z,4.97
2022-09-25T09:35:04.588Z,4.70
2022-09-25T09:38:00.458Z,4.20
2022-09-25T09:40:54.834Z,4.50
2022-09-25T09:43:37.903Z,4.13
2022-09-25T09:46:25.995Z,4.70
2022-09-25T09:49:08.844Z,3.60
2022-09-25T09:51:49.108Z,3.40
2022-09-25T09:54:24.413Z,4.30
2022-09-25T09:56:56.047Z,3.90
2022-09-25T09:59:30.771Z,4.00
2022-09-25T10:02:26.612Z,3.60
2022-09-25T10:04:54.352Z,4.00
2022-09-25T10:07:26.327Z,3.60
2022-09-25T10:09:53.918Z,4.17
2022-09-25T10:12:29.375Z,3.50
2022-09-25T10:15:11.989Z,4.00
2022-09-25T10:17:42.479Z,3.47
2022-09-25T10:20:20.040Z,3.77
2022-09-25T10:22:53.178Z,3.77
2022-09-25T10:25:39.689Z,3.67
2022-09-25T10:28:31.719Z,3.20
2022-09-25T10:31:02.407Z,3.40
2022-09-25T10:33:32.690Z,3.43
2022-09-25T10:36:02.992Z,3.50
2022-09-25T10:38:37.680Z,4.20
2022-09-25T10:41:16.438Z,3.83
2022-09-25T10:43:57.578Z,3.00
2022-09-25T10:46:54.180Z,3.70
2022-09-25T10:49:44.456Z,3.00
2022-09-25T10:52:13.180Z,3.50
2022-09-25T10:54:45.493Z,3.23
2022-09-25T10:57:17.877Z,3.20
2022-09-25T10:59:49.718Z,3.50
2022-09-25T11:02:35.145Z,3.40
2022-09-25T11:05:02.944Z,3.33
2022-09-25T11:07:29.475Z,2.90
2022-09-25T11:10:05.547Z,3.57
2022-09-25T11:12:35.719Z,3.47
2022-09-25T11:15:05.114Z,3.27
2022-09-25T11:17:42.284Z,3.10
2022-09-25T11:20:15.601Z,2.50
2022-09-25T11:22:55.574Z,2.83
2022-09-25T11:25:39.662Z,3.07
2022-09-25T11:28:27.312Z,2.20
2022-09-25T11:31:01.459Z,3.00
2022-09-25T11:33:49.145Z,3.20
2022-09-25T11:36:32.227Z,2.77
2022-09-25T11:39:28.906Z,2.83
2022-09-25T11:42:27.866Z,3.30
2022-09-25T11:45:01.913Z,5.60
2022-09-25T11:47:56.977Z,2.47
2022-09-25T11:50:39.303Z,3.07
2022-09-25T11:53:48.131Z,2.77
2022-09-25T11:56:42.324Z,2.80
2022-09-25T11:59:39.707Z,2.77
2022-09-25T12:02:30.565Z,2.37
2022-09-25T12:05:24.684Z,2.87
2022-09-25T12:08:13.059Z,2.67
2022-09-25T12:10:49.175Z,1.80
2022-09-25T12:13:40.364Z,2.20
2022-09-25T12:16:35.406Z,4.13
2022-09-25T12:19:18.458Z,2.90
2022-09-25T12:22:00.549Z,2.60
2022-09-25T12:24:59.992Z,2.73
2022-09-25T12:27:36.780Z,2.07
2022-09-25T12:30:23.334Z,2.20
2022-09-25T12:33:21.364Z,2.10
2022-09-25T12:36:14.138Z,2.27
2022-09-25T12:38:55.442Z,1.90
2022-09-25T12:41:48.595Z,2.20
2022-09-25T12:44:33.415Z,2.00
2022-09-25T12:47:08.996Z,2.20
2022-09-25T12:49:39.687Z,1.60
2022-09-25T12:52:12.383Z,2.70
2022-09-25T12:54:53.660Z,2.27
2022-09-25T12:57:32.347Z,2.73
2022-09-25T13:00:19.229Z,2.10
2022-09-25T13:02:57.864Z,2.10
2022-09-25T13:05:51.890Z,2.00
2022-09-25T13:08:26.993Z,2.20
2022-09-25T13:11:06.348Z,2.13
2022-09-25T13:13:42.619Z,2.00
2022-09-25T13:16:15.335Z,2.63
2022-09-25T13:19:10.471Z,4.07
2022-09-25T13:21:43.776Z,2.00
2022-09-25T13:24:16.954Z,1.43
2022-09-25T13:26:46.364Z,2.00
2022-09-25T13:29:28.971Z,1.63
2022-09-25T13:32:07.149Z,1.43
2022-09-25T13:34:39.389Z,1.80
2022-09-25T13:37:08.208Z,1.90
2022-09-25T13:39:59.532Z,2.20
2022-09-25T13:42:38.183Z,1.77
2022-09-25T13:45:17.121Z,1.43
2022-09-25T13:48:08.054Z,1.57
2022-09-25T13:50:45.954Z,1.20
2022-09-25T13:53:22.169Z,1.40
2022-09-25T13:55:55.004Z,1.63
2022-09-25T13:58:33.775Z,1.30
2022-09-25T14:01:11.042Z,1.70
2022-09-25T14:03:49.539Z,1.70
2022-09-25T14:06:34.426Z,3.30
2022-09-25T14:09:08.653Z,1.90
2022-09-25T14:11:40.633Z,2.13
2022-09-25T14:14:09.465Z,1.90
2022-09-25T14:16:51.306Z,1.73
2022-09-25T14:19:26.629Z,1.50
2022-09-25T14:21:54.155Z,1.60
2022-09-25T14:24:28.383Z,1.67
2022-09-25T14:27:03.283Z,1.63
2022-09-25T14:29:38.678Z,1.50
2022-09-25T14:35:54.292Z,1.70
2022-09-25T14:38:50.036Z,1.23
2022-09-25T14:41:25.362Z,1.17
2022-09-25T14:44:15.856Z,1.50
2022-09-25T14:46:48.333Z,1.33
2022-09-25T14:49:29.538Z,1.30
2022-09-25T14:52:02.761Z,1.90
2022-09-25T14:54:35.860Z,1.63
2022-09-25T14:57:07.425Z,1.20
2022-09-25T14:59:41.581Z,25.53
2022-09-25T15:02:22.045Z,3.77
2022-09-25T15:04:57.063Z,2.40
2022-09-25T15:07:31.362Z,2.17
2022-09-25T15:10:01.301Z,5.40
2022-09-25T15:12:35.360Z,1.60
2022-09-25T15:15:12.380Z,2.23
2022-09-25T15:18:01.872Z,1.70
2022-09-25T15:20:32.877Z,1.70
2022-09-25T15:23:09.649Z,2.50
2022-09-25T15:25:42.712Z,1.40
2022-09-25T15:28:39.050Z,1.50
2022-09-25T15:31:08.827Z,1.50
2022-09-25T15:33:40.134Z,2.03
2022-09-25T15:36:19.469Z,2.97
2022-09-25T15:38:52.251Z,2.50
2022-09-25T15:41:19.150Z,2.90
2022-09-25T15:44:10.803Z,1.43
2022-09-25T15:46:38.875Z,2.47
2022-09-25T15:49:05.535Z,2.03
2022-09-25T15:51:35.708Z,1.67
2022-09-25T15:54:33.568Z,1.70
2022-09-25T15:57:12.555Z,1.30
2022-09-25T16:00:04.361Z,1.17
2022-09-25T16:03:06.714Z,1.50
2022-09-25T16:05:37.565Z,1.10
2022-09-25T16:08:29.380Z,1.70
2022-09-25T16:11:13.199Z,1.40
2022-09-25T16:13:42.897Z,1.53
2022-09-25T16:16:28.683Z,1.47
2022-09-25T16:18:56.623Z,1.70
2022-09-25T16:21:32.308Z,1.40
2022-09-25T16:24:06.583Z,1.03
2022-09-25T16:26:38.178Z,1.30
2022-09-25T16:29:11.328Z,1.80
2022-09-25T16:31:42.771Z,1.90
2022-09-25T16:34:25.454Z,1.70
2022-09-25T16:36:58.681Z,1.70
2022-09-25T16:39:30.588Z,1.70
2022-09-25T16:41:59.200Z,2.20
2022-09-25T16:44:29.331Z,2.40
2022-09-25T16:46:59.545Z,2.83
2022-09-25T16:49:32.306Z,1.97
2022-09-25T16:52:07.664Z,2.90
2022-09-25T16:54:37.871Z,5.47
2022-09-25T16:57:09.114Z,8.00
2022-09-25T16:59:36.114Z,9.20
2022-09-25T17:02:18.845Z,10.90
2022-09-25T17:04:50.021Z,9.23
2022-09-25T17:07:24.315Z,4.30
2022-09-25T17:09:54.946Z,5.60
2022-09-25T17:12:25.407Z,5.27
2022-09-25T17:14:55.887Z,4.00
2022-09-25T17:17:25.546Z,4.20
2022-09-25T17:19:55.539Z,4.03
2022-09-25T17:22:29.373Z,4.23
2022-09-25T17:25:41.031Z,4.10
2022-09-25T17:28:11.534Z,3.87
2022-09-25T17:30:42.552Z,4.30
2022-09-25T17:33:17.888Z,4.70
2022-09-25T17:35:58.279Z,4.80
2022-09-25T17:38:26.571Z,5.60
2022-09-25T17:40:56.389Z,5.30
2022-09-25T17:43:25.407Z,7.70
2022-09-25T17:45:59.832Z,6.63
2022-09-25T17:48:29.961Z,7.00
2022-09-25T17:51:03.266Z,6.80
2022-09-25T17:53:31.238Z,5.53
2022-09-25T17:55:59.272Z,6.47
2022-09-25T17:58:29.317Z,6.20
2022-09-25T18:01:00.439Z,5.77
2022-09-25T18:03:30.438Z,6.30
2022-09-25T18:05:58.309Z,4.93
2022-09-25T18:08:27.693Z,4.80
2022-09-25T18:10:58.189Z,4.70
2022-09-25T18:13:31.192Z,4.37
2022-09-25T18:16:01.193Z,4.97
2022-09-25T18:18:50.222Z,5.00
2022-09-25T18:21:38.170Z,4.73
2022-09-25T18:24:04.560Z,4.20
2022-09-25T18:26:31.525Z,3.43
2022-09-25T18:29:02.842Z,4.10
2022-09-25T18:31:33.030Z,3.10
2022-09-25T18:33:59.155Z,3.00
2022-09-25T18:36:25.543Z,3.40
2022-09-25T18:38:56.481Z,3.77
2022-09-25T18:41:22.866Z,4.33
2022-09-25T18:43:49.017Z,3.93
2022-09-25T18:46:15.498Z,4.60
2022-09-25T18:48:47.171Z,5.57
2022-09-25T18:51:14.280Z,5.90
2022-09-25T18:53:40.565Z,6.30
2022-09-25T18:56:07.520Z,4.70
2022-09-25T18:58:36.546Z,4.23
2022-09-25T19:01:05.567Z,6.03
2022-09-25T19:03:37.092Z,6.33
2022-09-25T19:06:06.283Z,7.53
2022-09-25T19:08:33.450Z,6.60
2022-09-25T19:11:11.569Z,6.30
2022-09-25T19:13:37.827Z,4.57
2022-09-25T19:16:10.296Z,4.53
2022-09-25T19:18:39.686Z,4.20
2022-09-25T19:21:15.619Z,3.67
2022-09-25T19:23:50.075Z,3.60
2022-09-25T19:26:21.529Z,3.47
2022-09-25T19:28:47.888Z,3.00
2022-09-25T19:31:20.017Z,2.70
2022-09-25T19:33:48.083Z,3.10
2022-09-25T19:36:20.321Z,3.60
2022-09-25T19:38:47.211Z,3.90
2022-09-25T19:41:26.907Z,4.03
2022-09-25T19:43:56.415Z,3.93
2022-09-25T19:46:23.279Z,4.00
2022-09-25T19:48:49.501Z,3.83
2022-09-25T19:51:21.881Z,3.27
2022-09-25T19:53:48.418Z,3.77
2022-09-25T19:56:15.486Z,3.90
2022-09-25T19:58:43.335Z,4.10
2022-09-25T20:01:16.040Z,4.37
2022-09-25T20:03:42.594Z,4.63
2022-09-25T20:06:12.275Z,5.13
2022-09-25T20:08:42.463Z,5.60
2022-09-25T20:11:23.746Z,5.20
2022-09-25T20:13:51.184Z,6.00
2022-09-25T20:16:24.318Z,6.47
2022-09-25T20:19:02.097Z,5.67
2022-09-25T20:21:33.751Z,5.57
2022-09-25T20:24:02.281Z,4.87
2022-09-25T20:26:32.598Z,4.30
2022-09-25T20:29:01.530Z,3.93
2022-09-25T20:31:29.445Z,3.17
2022-09-25T20:33:55.840Z,3.90
2022-09-25T20:36:25.237Z,5.07
2022-09-25T20:38:53.145Z,4.90
2022-09-25T20:41:20.464Z,2.43
2022-09-25T20:43:50.605Z,2.40
2022-09-25T20:46:19.630Z,2.30
2022-09-25T20:48:50.790Z,1.90
2022-09-25T20:51:20.774Z,2.70
2022-09-25T20:54:01.302Z,2.20
2022-09-25T20:56:29.042Z,1.70
2022-09-25T20:58:56.144Z,2.30
2022-09-25T21:01:24.962Z,2.10
2022-09-25T21:03:58.471Z,2.10
2022-09-25T21:06:27.407Z,2.10
2022-09-25T21:08:55.945Z,1.70
2022-09-25T21:11:25.075Z,2.53
2022-09-25T21:13:57.446Z,2.40
2022-09-25T21:16:24.639Z,2.40
2022-09-25T21:19:04.535Z,2.27
2022-09-25T21:21:33.613Z,2.00
2022-09-25T21:24:01.511Z,2.40
2022-09-25T21:26:29.361Z,1.90
2022-09-25T21:29:01.660Z,2.27
2022-09-25T21:31:34.732Z,2.17
2022-09-25T21:34:01.451Z,2.40
2022-09-25T21:36:29.115Z,2.90
2022-09-25T21:39:03.222Z,3.10
2022-09-25T21:41:32.161Z,3.17
2022-09-25T21:44:05.351Z,3.03
2022-09-25T21:46:32.739Z,3.20
2022-09-25T21:49:05.233Z,3.27
2022-09-25T21:51:41.910Z,3.30
2022-09-25T21:54:09.437Z,3.30
2022-09-25T21:56:42.527Z,3.87
2022-09-25T21:59:09.809Z,3.70
2022-09-25T22:01:39.350Z,3.60
2022-09-25T22:04:11.955Z,3.70
2022-09-25T22:06:41.467Z,3.93
2022-09-25T22:09:10.491Z,4.00
2022-09-25T22:11:38.642Z,3.50
2022-09-25T22:14:15.842Z,4.27
2022-09-25T22:16:44.571Z,4.30
2022-09-25T22:19:19.365Z,4.07
2022-09-25T22:21:47.117Z,3.43
2022-09-25T22:24:14.668Z,3.80
2022-09-25T22:26:45.862Z,3.33
2022-09-25T22:29:14.784Z,3.67
2022-09-25T22:31:43.764Z,4.00
2022-09-25T22:34:19.442Z,3.23
2022-09-25T22:36:45.914Z,3.90
2022-09-25T22:39:14.690Z,3.87
2022-09-25T22:41:53.199Z,3.17
2022-09-25T22:44:20.235Z,3.80
2022-09-25T22:46:49.190Z,3.60
2022-09-25T22:49:19.412Z,3.53
2022-09-25T22:51:49.331Z,3.10
2022-09-25T22:54:19.556Z,4.07
2022-09-25T22:56:49.186Z,3.50
2022-09-25T22:59:24.297Z,3.23
2022-09-25T23:01:54.663Z,3.63
2022-09-25T23:04:24.915Z,4.03
2022-09-25T23:06:53.921Z,2.80
2022-09-25T23:09:25.237Z,3.50
2022-09-25T23:11:54.354Z,2.90
2022-09-25T23:14:25.418Z,2.93
2022-09-25T23:16:53.329Z,3.10
2022-09-25T23:19:22.189Z,2.50
2022-09-25T23:21:52.474Z,2.30
2022-09-25T23:24:21.366Z,2.57
2022-09-25T23:26:55.147Z,3.03
2022-09-25T23:29:24.251Z,3.33
2022-09-25T23:31:53.810Z,3.27
2022-09-25T23:34:23.457Z,3.33
2022-09-25T23:36:53.468Z,3.47
2022-09-25T23:39:22.989Z,3.37
2022-09-25T23:41:52.808Z,3.60
2022-09-25T23:44:22.530Z,4.20
2022-09-25T23:46:52.448Z,3.30
2022-09-25T23:49:21.765Z,3.10
2022-09-25T23:51:53.263Z,3.53
2022-09-25T23:54:26.407Z,4.07
2022-09-25T23:56:56.064Z,3.13
2022-09-25T23:59:25.463Z,3.80
